Time;durP1;ratioP1;P1;durP2;ratioP2;P2;SDS_P1;SDS_P2;PMS_P1;PMS_P2;Temp;Humidity;BMP_temperature;BMP_pressure;BME280_temperature;BME280_humidity;BME280_pressure;Samples;Min_cycle;Max_cycle;Signal;HPM_P1;HPM_P2
2023/01/18 00:00:20;;;;;;;5.53;3.20;;;;;;;;;;6196905;23;20776;-77
2023/01/18 00:02:48;;;;;;;3.95;3.15;;;;;;;;;;6223103;23;20016;-77
2023/01/18 00:05:14;;;;;;;5.18;3.38;;;;;;;;;;6197781;23;20104;-77
2023/01/18 00:07:40;;;;;;;5.22;4.20;;;;;;;;;;6222238;23;20796;-77
2023/01/18 00:10:06;;;;;;;13.93;4.03;;;;;;;;;;6222147;23;20071;-77
2023/01/18 00:12:33;;;;;;;9.95;4.38;;;;;;;;;;6197982;23;20075;-77
2023/01/18 00:14:59;;;;;;;5.88;3.67;;;;;;;;;;6223333;23;20020;-77
2023/01/18 00:17:25;;;;;;;7.20;3.47;;;;;;;;;;6176493;23;20013;-77
2023/01/18 00:19:51;;;;;;;9.25;3.70;;;;;;;;;;6178861;23;20031;-77
2023/01/18 00:22:17;;;;;;;10.55;4.65;;;;;;;;;;6184970;23;20071;-77
2023/01/18 00:24:43;;;;;;;3.88;3.45;;;;;;;;;;6190041;23;20008;-75
2023/01/18 00:27:09;;;;;;;5.25;3.65;;;;;;;;;;6241999;23;20055;-75
2023/01/18 00:29:35;;;;;;;5.75;2.90;;;;;;;;;;6203626;23;20113;-77
2023/01/18 00:32:02;;;;;;;8.73;3.88;;;;;;;;;;6202591;23;20012;-76
2023/01/18 00:34:28;;;;;;;5.13;3.63;;;;;;;;;;6170690;23;20042;-76
2023/01/18 00:36:54;;;;;;;9.02;4.40;;;;;;;;;;6170199;23;20027;-77
2023/01/18 00:39:20;;;;;;;7.05;3.47;;;;;;;;;;6243937;23;20004;-84
2023/01/18 00:44:30;;;;;;;10.43;3.90;;;;;;;;;;6207332;23;20351;-85
2023/01/18 00:46:56;;;;;;;8.88;4.05;;;;;;;;;;6183900;23;20024;-85
2023/01/18 00:49:24;;;;;;;10.25;4.88;;;;;;;;;;6181830;23;20012;-85
2023/01/18 00:51:51;;;;;;;6.82;4.22;;;;;;;;;;6181514;23;20024;-84
2023/01/18 00:54:17;;;;;;;6.57;3.88;;;;;;;;;;6223361;23;20096;-84
2023/01/18 00:56:43;;;;;;;6.03;4.07;;;;;;;;;;6203563;23;20030;-85
2023/01/18 00:59:10;;;;;;;11.07;4.22;;;;;;;;;;6180650;23;20016;-85
2023/01/18 01:01:36;;;;;;;11.50;3.70;;;;;;;;;;6205752;23;20047;-85
2023/01/18 01:06:47;;;;;;;6.82;5.00;;;;;;;;;;6231410;23;20012;-84
2023/01/18 01:09:16;;;;;;;6.03;4.28;;;;;;;;;;6189697;23;20092;-85
2023/01/18 01:12:31;;;;;;;7.10;4.13;;;;;;;;;;6241364;23;20023;-83
2023/01/18 01:28:13;;;;;;;5.90;3.90;;;;;;;;;;6232367;22;20012;-85
2023/01/18 01:30:39;;;;;;;7.68;4.68;;;;;;;;;;6182656;23;20472;-85
2023/01/18 01:33:05;;;;;;;5.85;4.43;;;;;;;;;;6233186;23;20063;-85
2023/01/18 01:35:31;;;;;;;7.28;4.68;;;;;;;;;;6183106;23;20660;-85
2023/01/18 01:37:57;;;;;;;7.18;4.97;;;;;;;;;;6233245;23;20087;-86
2023/01/18 01:40:23;;;;;;;11.35;5.00;;;;;;;;;;6183088;23;20016;-85
2023/01/18 01:42:50;;;;;;;6.05;4.60;;;;;;;;;;6182888;23;20020;-85
2023/01/18 01:45:18;;;;;;;5.93;4.22;;;;;;;;;;6233292;23;20158;-85
2023/01/18 01:47:46;;;;;;;8.80;5.00;;;;;;;;;;6229914;23;20099;-86
2023/01/18 01:50:18;;;;;;;8.05;5.00;;;;;;;;;;6228528;23;20087;-85
2023/01/18 01:52:46;;;;;;;14.35;5.47;;;;;;;;;;6179421;23;20019;-85
2023/01/18 01:55:15;;;;;;;6.95;4.82;;;;;;;;;;6206712;23;20034;-85
2023/01/18 01:57:46;;;;;;;7.53;5.25;;;;;;;;;;6180893;23;20069;-85
2023/01/18 02:00:19;;;;;;;7.85;5.40;;;;;;;;;;6181994;23;20103;-84
2023/01/18 02:02:52;;;;;;;7.30;5.63;;;;;;;;;;6236173;23;20095;-85
2023/01/18 02:05:19;;;;;;;8.35;5.22;;;;;;;;;;6210611;23;20022;-85
2023/01/18 02:07:45;;;;;;;8.95;6.30;;;;;;;;;;6212376;23;20019;-85
2023/01/18 02:10:11;;;;;;;11.52;6.05;;;;;;;;;;6243122;23;20433;-85
2023/01/18 02:12:41;;;;;;;9.07;5.68;;;;;;;;;;6236765;23;20012;-85
2023/01/18 02:15:08;;;;;;;10.30;6.03;;;;;;;;;;6212795;23;20019;-85
2023/01/18 02:17:53;;;;;;;8.90;5.80;;;;;;;;;;6259993;23;20016;-85
2023/01/18 02:20:39;;;;;;;9.57;5.57;;;;;;;;;;6230168;23;20462;-85
2023/01/18 02:23:31;;;;;;;8.30;6.05;;;;;;;;;;6237473;23;20016;-84
2023/01/18 02:26:06;;;;;;;10.75;5.70;;;;;;;;;;6182513;23;20012;-83
2023/01/18 02:28:34;;;;;;;9.50;5.68;;;;;;;;;;6208950;23;20334;-85
2023/01/18 02:31:03;;;;;;;7.90;4.85;;;;;;;;;;6208815;23;20052;-84
2023/01/18 02:33:48;;;;;;;9.82;5.18;;;;;;;;;;6185351;23;20016;-85
2023/01/18 02:36:33;;;;;;;11.88;5.43;;;;;;;;;;6238358;23;20016;-84
2023/01/18 02:39:03;;;;;;;9.82;6.15;;;;;;;;;;6239227;23;20087;-84
2023/01/18 02:47:07;;;;;;;9.38;6.18;;;;;;;;;;6239308;23;20020;-85
2023/01/18 02:49:33;;;;;;;10.60;6.53;;;;;;;;;;6191948;23;20019;-84
2023/01/18 02:52:00;;;;;;;10.32;6.30;;;;;;;;;;6175744;23;20239;-84
2023/01/18 02:54:26;;;;;;;9.20;6.43;;;;;;;;;;6256725;23;20020;-83
2023/01/18 02:56:54;;;;;;;9.32;6.13;;;;;;;;;;6251879;23;20066;-85
2023/01/18 02:59:33;;;;;;;13.85;6.32;;;;;;;;;;6215430;23;20111;-85
2023/01/18 03:02:05;;;;;;;7.72;5.45;;;;;;;;;;6246236;23;20028;-85
2023/01/18 03:04:35;;;;;;;9.23;6.10;;;;;;;;;;6244442;23;20031;-85
2023/01/18 03:07:03;;;;;;;8.68;6.40;;;;;;;;;;6182063;23;20047;-85
2023/01/18 03:09:30;;;;;;;8.98;6.57;;;;;;;;;;6233462;23;20020;-85
2023/01/18 03:12:16;;;;;;;8.27;6.72;;;;;;;;;;6181985;23;20102;-85
2023/01/18 03:14:55;;;;;;;11.30;7.40;;;;;;;;;;6208132;23;20083;-85
2023/01/18 03:17:28;;;;;;;9.15;7.40;;;;;;;;;;6207828;23;20509;-84
2023/01/18 03:20:06;;;;;;;9.52;6.70;;;;;;;;;;6179859;23;20099;-85
2023/01/18 03:25:22;;;;;;;12.50;7.57;;;;;;;;;;6231084;23;20801;-84
2023/01/18 03:33:40;;;;;;;12.90;6.70;;;;;;;;;;6232965;23;20023;-84
2023/01/18 03:36:08;;;;;;;10.43;6.18;;;;;;;;;;6203244;23;20016;-84
2023/01/18 03:38:36;;;;;;;12.15;7.70;;;;;;;;;;6204499;23;20012;-83
2023/01/18 03:41:03;;;;;;;13.00;8.25;;;;;;;;;;6229403;23;20022;-84
2023/01/18 03:43:35;;;;;;;10.60;8.07;;;;;;;;;;6203075;23;20020;-83
2023/01/18 03:46:02;;;;;;;10.30;8.35;;;;;;;;;;6205291;23;20016;-84
2023/01/18 03:48:28;;;;;;;11.20;8.20;;;;;;;;;;6207211;23;20035;-83
2023/01/18 03:50:56;;;;;;;10.68;7.95;;;;;;;;;;6182052;23;20055;-84
2023/01/18 03:53:31;;;;;;;9.30;7.57;;;;;;;;;;6203254;23;20613;-84
2023/01/18 03:56:27;;;;;;;15.95;6.35;;;;;;;;;;6155620;23;20016;-84
2023/01/18 03:58:55;;;;;;;16.80;7.85;;;;;;;;;;6158773;23;20757;-83
2023/01/18 04:01:21;;;;;;;11.45;7.60;;;;;;;;;;6191928;23;20017;-83
2023/01/18 04:03:47;;;;;;;12.02;7.90;;;;;;;;;;6179741;23;20119;-83
2023/01/18 04:06:13;;;;;;;12.05;7.80;;;;;;;;;;6176017;23;20017;-84
2023/01/18 04:08:39;;;;;;;10.70;8.00;;;;;;;;;;6174172;23;20031;-84
2023/01/18 04:11:06;;;;;;;11.55;7.50;;;;;;;;;;6175422;23;20008;-84
2023/01/18 04:13:32;;;;;;;12.65;7.97;;;;;;;;;;6181637;23;20658;-80
2023/01/18 04:15:58;;;;;;;13.88;7.57;;;;;;;;;;6116995;23;20023;-79
2023/01/18 04:18:24;;;;;;;14.77;8.50;;;;;;;;;;6144110;23;20013;-79
2023/01/18 04:20:55;;;;;;;11.20;7.93;;;;;;;;;;6142915;23;20020;-80
2023/01/18 04:23:21;;;;;;;12.80;9.10;;;;;;;;;;6167855;23;20021;-79
2023/01/18 04:25:49;;;;;;;10.43;8.02;;;;;;;;;;6167013;23;20020;-79
2023/01/18 04:28:16;;;;;;;10.85;8.48;;;;;;;;;;6142606;23;20098;-79
2023/01/18 04:30:42;;;;;;;11.02;8.13;;;;;;;;;;6168587;23;20020;-79
2023/01/18 04:33:08;;;;;;;9.13;6.45;;;;;;;;;;6169896;23;20455;-79
2023/01/18 04:35:35;;;;;;;7.35;5.20;;;;;;;;;;6195273;23;20012;-79
2023/01/18 04:38:01;;;;;;;13.05;8.35;;;;;;;;;;6195393;23;20163;-79
2023/01/18 04:40:27;;;;;;;11.38;7.25;;;;;;;;;;6121739;23;20257;-79
2023/01/18 04:42:54;;;;;;;11.25;7.70;;;;;;;;;;6169209;23;20831;-79
2023/01/18 04:45:20;;;;;;;12.52;7.07;;;;;;;;;;6144161;23;20012;-80
2023/01/18 04:47:46;;;;;;;12.15;7.13;;;;;;;;;;6169481;23;20490;-79
2023/01/18 04:50:12;;;;;;;12.98;8.95;;;;;;;;;;6170012;23;20071;-79
2023/01/18 04:52:38;;;;;;;9.02;6.45;;;;;;;;;;6122905;23;20021;-80
2023/01/18 04:55:05;;;;;;;12.18;8.43;;;;;;;;;;6227825;23;20386;-79
2023/01/18 04:57:31;;;;;;;12.25;9.10;;;;;;;;;;6157280;23;20044;-80
2023/01/18 04:59:59;;;;;;;10.93;7.65;;;;;;;;;;6234621;22;20430;-80
2023/01/18 05:02:25;;;;;;;13.20;9.10;;;;;;;;;;6210208;23;20023;-79
2023/01/18 05:04:51;;;;;;;11.73;7.57;;;;;;;;;;6206301;23;20418;-79
2023/01/18 05:07:17;;;;;;;14.45;8.40;;;;;;;;;;6202832;23;20019;-79
2023/01/18 05:09:43;;;;;;;13.10;8.52;;;;;;;;;;6204456;23;20099;-79
2023/01/18 05:12:09;;;;;;;10.68;7.63;;;;;;;;;;6227780;23;20035;-80
2023/01/18 05:14:35;;;;;;;14.15;8.40;;;;;;;;;;6224277;23;20461;-79
2023/01/18 05:17:01;;;;;;;17.77;8.13;;;;;;;;;;6149264;23;20020;-79
2023/01/18 05:19:29;;;;;;;16.77;8.00;;;;;;;;;;6199920;23;20062;-80
2023/01/18 05:21:55;;;;;;;11.10;8.02;;;;;;;;;;6174370;23;20708;-79
2023/01/18 05:24:21;;;;;;;13.70;8.88;;;;;;;;;;6202951;23;20041;-79
2023/01/18 05:26:54;;;;;;;12.98;8.93;;;;;;;;;;6179559;23;20350;-79
2023/01/18 05:29:20;;;;;;;13.80;8.98;;;;;;;;;;6227928;22;20016;-79
2023/01/18 05:31:46;;;;;;;13.55;7.82;;;;;;;;;;6201809;23;20055;-79
2023/01/18 05:34:12;;;;;;;16.42;8.25;;;;;;;;;;6204091;23;20012;-79
2023/01/18 05:36:38;;;;;;;15.32;8.40;;;;;;;;;;6229531;23;20012;-79
2023/01/18 05:39:05;;;;;;;11.98;8.98;;;;;;;;;;6205272;23;20016;-79
2023/01/18 05:41:31;;;;;;;9.75;7.28;;;;;;;;;;6207841;23;20020;-79
2023/01/18 05:43:57;;;;;;;16.50;9.18;;;;;;;;;;6192052;23;20016;-76
2023/01/18 05:46:23;;;;;;;11.55;7.75;;;;;;;;;;6218656;23;20016;-78
2023/01/18 05:48:49;;;;;;;12.43;8.35;;;;;;;;;;6251873;23;20008;-78
2023/01/18 05:51:16;;;;;;;13.45;8.40;;;;;;;;;;6256309;23;20004;-77
2023/01/18 05:53:42;;;;;;;11.13;7.03;;;;;;;;;;6244861;23;20027;-79
2023/01/18 05:56:08;;;;;;;13.85;8.23;;;;;;;;;;6197543;23;20054;-79
2023/01/18 05:58:40;;;;;;;14.95;10.15;;;;;;;;;;6155070;23;20023;-82
2023/01/18 06:01:09;;;;;;;12.32;9.38;;;;;;;;;;6186095;23;20027;-82
2023/01/18 06:03:36;;;;;;;16.20;10.10;;;;;;;;;;6209860;23;20016;-81
2023/01/18 06:06:05;;;;;;;17.45;11.00;;;;;;;;;;6236641;23;20035;-81
2023/01/18 06:08:32;;;;;;;15.90;9.15;;;;;;;;;;6186236;23;20027;-81
2023/01/18 06:10:59;;;;;;;15.25;9.65;;;;;;;;;;6210953;23;20031;-81
2023/01/18 06:13:26;;;;;;;17.02;10.05;;;;;;;;;;6188343;23;20059;-81
2023/01/18 06:15:56;;;;;;;15.25;10.73;;;;;;;;;;6189622;23;20090;-81
2023/01/18 06:18:23;;;;;;;15.25;10.30;;;;;;;;;;6236617;23;20022;-81
2023/01/18 06:20:53;;;;;;;15.75;10.20;;;;;;;;;;6208379;23;20095;-80
2023/01/18 06:23:19;;;;;;;16.00;10.13;;;;;;;;;;6183591;23;20361;-81
2023/01/18 06:25:45;;;;;;;15.57;10.65;;;;;;;;;;6183762;23;20012;-81
2023/01/18 06:28:12;;;;;;;16.88;11.02;;;;;;;;;;6233753;22;20046;-81
2023/01/18 06:30:38;;;;;;;14.63;10.82;;;;;;;;;;6181553;23;20047;-80
2023/01/18 06:33:05;;;;;;;14.98;10.95;;;;;;;;;;6182970;23;20024;-80
2023/01/18 06:35:32;;;;;;;19.98;11.00;;;;;;;;;;6183423;23;20016;-80
2023/01/18 06:37:59;;;;;;;15.02;10.43;;;;;;;;;;6207749;23;20023;-81
2023/01/18 06:40:25;;;;;;;19.63;12.90;;;;;;;;;;6180997;23;20027;-80
2023/01/18 06:42:51;;;;;;;20.75;12.45;;;;;;;;;;6232553;23;20012;-80
2023/01/18 06:45:20;;;;;;;16.77;11.38;;;;;;;;;;6159254;23;20076;-81
2023/01/18 06:47:47;;;;;;;17.25;10.98;;;;;;;;;;6233598;23;20087;-81
2023/01/18 06:50:14;;;;;;;17.98;12.73;;;;;;;;;;6236242;23;20016;-81
2023/01/18 06:52:41;;;;;;;21.67;12.85;;;;;;;;;;6234289;23;20047;-82
2023/01/18 06:55:08;;;;;;;19.50;12.02;;;;;;;;;;6184489;23;20115;-80
2023/01/18 06:57:34;;;;;;;16.75;11.15;;;;;;;;;;6186881;23;20016;-79
2023/01/18 07:00:04;;;;;;;14.25;9.18;;;;;;;;;;6190483;23;20043;-81
2023/01/18 07:02:31;;;;;;;17.50;12.23;;;;;;;;;;6169864;23;20016;-80
2023/01/18 07:04:57;;;;;;;18.65;11.18;;;;;;;;;;6192162;23;20016;-80
2023/01/18 07:07:23;;;;;;;20.80;12.70;;;;;;;;;;6199592;23;20004;-79
2023/01/18 07:09:52;;;;;;;19.90;11.57;;;;;;;;;;6205428;23;20087;-80
2023/01/18 07:12:18;;;;;;;21.27;11.65;;;;;;;;;;6253395;23;20024;-80
2023/01/18 07:14:45;;;;;;;20.70;11.00;;;;;;;;;;6237843;23;20023;-80
2023/01/18 07:17:11;;;;;;;17.75;10.90;;;;;;;;;;6160098;23;20087;-81
2023/01/18 07:19:37;;;;;;;15.40;9.88;;;;;;;;;;6213681;23;20015;-80
2023/01/18 07:22:04;;;;;;;13.80;9.93;;;;;;;;;;6193855;23;20633;-80
2023/01/18 07:24:30;;;;;;;15.02;9.40;;;;;;;;;;6221061;23;20505;-80
2023/01/18 07:26:59;;;;;;;14.45;8.50;;;;;;;;;;6177129;22;20032;-82
2023/01/18 07:29:26;;;;;;;12.02;8.73;;;;;;;;;;6259719;22;20079;-83
2023/01/18 07:31:52;;;;;;;21.48;9.02;;;;;;;;;;6223214;23;20020;-84
2023/01/18 07:34:18;;;;;;;15.93;10.63;;;;;;;;;;6214095;23;20429;-84
2023/01/18 07:36:45;;;;;;;15.50;10.43;;;;;;;;;;6188820;23;20062;-83
2023/01/18 07:39:11;;;;;;;15.07;11.18;;;;;;;;;;6186230;23;20174;-84
2023/01/18 07:41:37;;;;;;;11.85;8.57;;;;;;;;;;6237764;23;20784;-82
2023/01/18 07:44:04;;;;;;;27.55;10.90;;;;;;;;;;6186829;23;20016;-83
2023/01/18 07:46:30;;;;;;;14.43;9.85;;;;;;;;;;6212122;23;20055;-82
2023/01/18 07:48:56;;;;;;;17.05;10.63;;;;;;;;;;6213914;23;20575;-81
2023/01/18 07:51:23;;;;;;;13.65;9.90;;;;;;;;;;6189188;23;20093;-82
2023/01/18 07:53:52;;;;;;;13.30;9.48;;;;;;;;;;6210378;23;20024;-83
2023/01/18 07:56:18;;;;;;;15.23;10.65;;;;;;;;;;6185717;23;20022;-83
2023/01/18 07:58:45;;;;;;;14.55;9.15;;;;;;;;;;6189648;23;20068;-80
2023/01/18 08:01:12;;;;;;;12.50;8.23;;;;;;;;;;6161336;23;20123;-81
2023/01/18 08:03:39;;;;;;;16.42;9.25;;;;;;;;;;6235205;23;20044;-79
2023/01/18 08:06:06;;;;;;;12.82;8.35;;;;;;;;;;6211367;23;20091;-80
2023/01/18 08:08:33;;;;;;;12.80;7.78;;;;;;;;;;6234622;23;20023;-80
2023/01/18 08:11:00;;;;;;;11.57;7.80;;;;;;;;;;6232861;23;20078;-80
2023/01/18 08:13:26;;;;;;;14.68;9.15;;;;;;;;;;6233712;23;20095;-81
2023/01/18 08:15:53;;;;;;;12.32;8.10;;;;;;;;;;6211865;23;20619;-79
2023/01/18 08:18:19;;;;;;;9.52;7.22;;;;;;;;;;6235671;23;20087;-79
2023/01/18 08:20:46;;;;;;;15.98;8.20;;;;;;;;;;6206815;23;20027;-80
2023/01/18 08:23:12;;;;;;;14.32;8.30;;;;;;;;;;6154585;23;20085;-80
2023/01/18 08:25:38;;;;;;;12.18;7.30;;;;;;;;;;6229802;23;20477;-80
2023/01/18 08:28:05;;;;;;;17.00;9.20;;;;;;;;;;6200548;22;20044;-79
2023/01/18 08:30:33;;;;;;;14.38;8.50;;;;;;;;;;6226198;23;20039;-79
2023/01/18 08:33:00;;;;;;;12.65;8.50;;;;;;;;;;6225870;23;20016;-78
2023/01/18 08:35:27;;;;;;;11.88;6.95;;;;;;;;;;6155748;23;20016;-78
2023/01/18 08:37:53;;;;;;;15.20;7.45;;;;;;;;;;6204354;23;20820;-78
2023/01/18 08:40:20;;;;;;;12.20;7.03;;;;;;;;;;6227162;23;20078;-79
2023/01/18 08:42:47;;;;;;;18.50;8.93;;;;;;;;;;6202887;23;20091;-74
2023/01/18 08:45:14;;;;;;;12.35;8.63;;;;;;;;;;6199964;23;20031;-74
2023/01/18 08:47:40;;;;;;;14.98;8.70;;;;;;;;;;6227523;23;20307;-73
2023/01/18 08:50:07;;;;;;;13.23;8.60;;;;;;;;;;6229235;23;20020;-74
2023/01/18 08:52:34;;;;;;;15.45;9.27;;;;;;;;;;6203289;23;20113;-74
2023/01/18 08:55:00;;;;;;;16.15;8.25;;;;;;;;;;6198588;23;20490;-74
2023/01/18 08:57:27;;;;;;;16.70;8.73;;;;;;;;;;6173642;23;20020;-75
2023/01/18 08:59:55;;;;;;;14.77;7.90;;;;;;;;;;6151384;23;20122;-75
2023/01/18 09:02:21;;;;;;;17.25;8.25;;;;;;;;;;6159759;23;20012;-74
2023/01/18 09:04:47;;;;;;;13.75;7.53;;;;;;;;;;6157901;23;20023;-73
2023/01/18 09:07:14;;;;;;;12.38;8.05;;;;;;;;;;6167543;23;20413;-73
2023/01/18 09:09:40;;;;;;;15.02;7.03;;;;;;;;;;6195978;23;20095;-74
2023/01/18 09:12:06;;;;;;;14.38;8.15;;;;;;;;;;6186983;23;20064;-74
2023/01/18 09:14:32;;;;;;;10.82;6.88;;;;;;;;;;6206220;23;20119;-74
2023/01/18 09:16:58;;;;;;;12.40;7.25;;;;;;;;;;6179110;23;20081;-74
2023/01/18 09:19:24;;;;;;;10.02;8.07;;;;;;;;;;6175397;23;20024;-74
2023/01/18 09:21:51;;;;;;;15.27;7.55;;;;;;;;;;6175876;23;20028;-74
2023/01/18 09:24:17;;;;;;;11.45;7.60;;;;;;;;;;6175814;23;20017;-74
2023/01/18 09:26:45;;;;;;;13.27;7.70;;;;;;;;;;6175567;23;20031;-74
2023/01/18 09:29:11;;;;;;;14.35;8.05;;;;;;;;;;6175644;23;20804;-74
2023/01/18 09:31:37;;;;;;;10.45;6.68;;;;;;;;;;6151332;23;20024;-74
2023/01/18 09:34:03;;;;;;;15.50;7.72;;;;;;;;;;6150916;23;20024;-74
2023/01/18 09:36:29;;;;;;;11.43;7.13;;;;;;;;;;6175383;23;20019;-74
2023/01/18 09:38:56;;;;;;;10.30;6.78;;;;;;;;;;6175528;23;20075;-74
2023/01/18 09:41:30;;;;;;;17.30;7.35;;;;;;;;;;6150267;23;20028;-74
2023/01/18 09:43:56;;;;;;;;;;;;;;;;;;6175782;23;20863;-74
2023/01/18 09:46:24;;;;;;;12.98;7.78;;;;;;;;;;6176060;23;19947;-74
2023/01/18 09:48:58;;;;;;;18.25;8.75;;;;;;;;;;6175770;23;20024;-74
2023/01/18 09:51:24;;;;;;;20.27;8.27;;;;;;;;;;6150807;23;20457;-74
2023/01/18 09:54:06;;;;;;;15.40;7.80;;;;;;;;;;6157614;23;20473;-74
2023/01/18 09:56:46;;;;;;;9.50;5.35;;;;;;;;;;6204914;23;20043;-73
2023/01/18 09:59:24;;;;;;;14.32;8.30;;;;;;;;;;6180038;23;20019;-73
2023/01/18 10:01:51;;;;;;;12.07;6.50;;;;;;;;;;6229815;23;20020;-74
2023/01/18 10:04:20;;;;;;;13.70;8.70;;;;;;;;;;6204967;23;20095;-74
2023/01/18 10:06:58;;;;;;;13.02;7.85;;;;;;;;;;6205448;23;20119;-74
2023/01/18 10:09:26;;;;;;;11.05;7.75;;;;;;;;;;6231342;23;20016;-75
2023/01/18 10:12:04;;;;;;;10.95;7.18;;;;;;;;;;6230763;23;20020;-73
2023/01/18 10:14:34;;;;;;;9.38;6.32;;;;;;;;;;6230632;23;20576;-73
2023/01/18 10:17:02;;;;;;;10.93;8.30;;;;;;;;;;6179279;23;20019;-73
2023/01/18 10:19:30;;;;;;;10.15;6.63;;;;;;;;;;6180935;23;20520;-74
2023/01/18 10:22:15;;;;;;;11.57;7.00;;;;;;;;;;6230100;23;20023;-73
2023/01/18 10:24:47;;;;;;;10.52;7.57;;;;;;;;;;6204993;23;20127;-73
2023/01/18 10:27:35;;;;;;;10.80;6.90;;;;;;;;;;6204497;23;20394;-72
2023/01/18 10:30:18;;;;;;;12.45;7.38;;;;;;;;;;6204652;23;20035;-73
2023/01/18 10:32:47;;;;;;;8.80;5.90;;;;;;;;;;6204639;23;20016;-72
2023/01/18 10:35:40;;;;;;;10.60;6.50;;;;;;;;;;6180077;23;20087;-72
2023/01/18 10:38:08;;;;;;;8.60;5.65;;;;;;;;;;6201306;23;20144;-73
2023/01/18 10:40:35;;;;;;;10.73;5.88;;;;;;;;;;6209766;23;20027;-82
2023/01/18 10:43:03;;;;;;;9.32;5.68;;;;;;;;;;6230466;23;20016;-82
2023/01/18 10:45:34;;;;;;;9.10;5.53;;;;;;;;;;6210066;23;20023;-82
2023/01/18 10:48:12;;;;;;;8.48;5.70;;;;;;;;;;6210214;23;20009;-82
2023/01/18 10:50:41;;;;;;;10.10;5.75;;;;;;;;;;6234239;23;20031;-81
2023/01/18 10:53:26;;;;;;;8.07;5.75;;;;;;;;;;6215634;23;20023;-82
2023/01/18 10:55:55;;;;;;;6.28;5.63;;;;;;;;;;6182076;23;20024;-82
2023/01/18 10:58:26;;;;;;;8.55;6.10;;;;;;;;;;6182404;23;20076;-82
2023/01/18 11:00:53;;;;;;;7.30;5.00;;;;;;;;;;6186812;23;20016;-82
2023/01/18 11:03:20;;;;;;;8.77;6.05;;;;;;;;;;6188322;23;20020;-82
2023/01/18 11:05:46;;;;;;;6.40;4.75;;;;;;;;;;6190657;23;20012;-82
2023/01/18 11:08:32;;;;;;;8.38;4.95;;;;;;;;;;6214080;23;20030;-80
2023/01/18 11:11:06;;;;;;;10.73;6.47;;;;;;;;;;6190154;23;20040;-82
2023/01/18 11:13:42;;;;;;;6.80;5.57;;;;;;;;;;6215823;23;20068;-81
2023/01/18 11:16:19;;;;;;;11.43;5.78;;;;;;;;;;6243265;23;20016;-82
2023/01/18 11:19:08;;;;;;;9.77;5.20;;;;;;;;;;6208770;23;20019;-81
2023/01/18 11:21:45;;;;;;;6.13;5.03;;;;;;;;;;6190868;23;20026;-81
2023/01/18 11:24:16;;;;;;;11.95;5.15;;;;;;;;;;6181492;23;20048;-81
2023/01/18 11:27:02;;;;;;;6.78;4.38;;;;;;;;;;6205491;23;20022;-81
2023/01/18 11:29:34;;;;;;;9.45;4.30;;;;;;;;;;6180187;23;20028;-81
2023/01/18 11:32:01;;;;;;;7.78;5.00;;;;;;;;;;6202359;23;20118;-81
2023/01/18 11:34:35;;;;;;;8.27;5.57;;;;;;;;;;6180421;23;20046;-81
2023/01/18 11:37:02;;;;;;;9.73;5.65;;;;;;;;;;6231131;23;20016;-80
2023/01/18 11:39:32;;;;;;;7.18;5.03;;;;;;;;;;6206045;23;20458;-82
2023/01/18 11:42:17;;;;;;;9.52;4.80;;;;;;;;;;6230566;23;20036;-81
2023/01/18 11:44:51;;;;;;;9.55;4.82;;;;;;;;;;6180152;23;20020;-82
2023/01/18 11:47:24;;;;;;;7.90;4.78;;;;;;;;;;6179977;23;20031;-81
2023/01/18 11:50:02;;;;;;;7.20;4.70;;;;;;;;;;6228936;23;20055;-82
2023/01/18 11:52:41;;;;;;;7.68;4.70;;;;;;;;;;6180245;23;20020;-82
2023/01/18 11:55:17;;;;;;;8.85;4.80;;;;;;;;;;6177625;23;20051;-82
2023/01/18 11:57:43;;;;;;;9.15;5.30;;;;;;;;;;6230924;23;20016;-82
2023/01/18 12:00:13;;;;;;;7.57;4.90;;;;;;;;;;6205281;23;20405;-82
2023/01/18 12:02:39;;;;;;;14.13;4.82;;;;;;;;;;6204008;23;20016;-82
2023/01/18 12:05:21;;;;;;;6.57;4.38;;;;;;;;;;6230068;23;20016;-82
2023/01/18 12:07:47;;;;;;;5.63;4.10;;;;;;;;;;6179697;23;20016;-82
2023/01/18 12:10:19;;;;;;;10.35;4.88;;;;;;;;;;6180325;23;20008;-82
2023/01/18 12:12:51;;;;;;;7.78;5.35;;;;;;;;;;6204762;23;20015;-82
2023/01/18 12:15:26;;;;;;;7.53;4.78;;;;;;;;;;6163461;23;20517;-81
2023/01/18 12:17:59;;;;;;;7.45;4.68;;;;;;;;;;6175853;23;20434;-82
2023/01/18 12:20:48;;;;;;;8.60;4.70;;;;;;;;;;6231373;23;20050;-82
2023/01/18 12:23:14;;;;;;;6.20;4.30;;;;;;;;;;6166141;23;20047;-82
2023/01/18 12:25:57;;;;;;;6.30;4.20;;;;;;;;;;6243252;23;20016;-81
2023/01/18 12:28:35;;;;;;;10.00;4.32;;;;;;;;;;6208534;23;20035;-81
2023/01/18 12:31:12;;;;;;;7.53;4.70;;;;;;;;;;6235183;23;20076;-81
2023/01/18 12:33:38;;;;;;;9.13;4.55;;;;;;;;;;6263825;23;20023;-81
2023/01/18 12:36:26;;;;;;;9.88;4.75;;;;;;;;;;6261916;22;20012;-82
2023/01/18 12:38:54;;;;;;;6.97;3.95;;;;;;;;;;6197436;23;20299;-81
2023/01/18 12:41:31;;;;;;;4.65;3.75;;;;;;;;;;6198825;23;20351;-81
2023/01/18 12:44:10;;;;;;;7.22;3.60;;;;;;;;;;6198089;23;20050;-81
2023/01/18 12:46:36;;;;;;;6.60;4.00;;;;;;;;;;6212058;23;20075;-81
2023/01/18 12:49:04;;;;;;;9.63;4.07;;;;;;;;;;6188655;23;20365;-82
2023/01/18 12:51:35;;;;;;;8.93;4.68;;;;;;;;;;6184232;23;20016;-81
2023/01/18 12:54:11;;;;;;;10.25;4.80;;;;;;;;;;6229979;23;20075;-81
2023/01/18 12:56:41;;;;;;;8.75;4.40;;;;;;;;;;6202756;23;20056;-81
2023/01/18 12:59:14;;;;;;;9.02;4.25;;;;;;;;;;6227183;22;20016;-81
2023/01/18 13:01:43;;;;;;;5.65;3.58;;;;;;;;;;6226735;23;20016;-81
2023/01/18 13:04:15;;;;;;;7.45;4.03;;;;;;;;;;6178025;23;20035;-81
2023/01/18 13:06:42;;;;;;;7.80;4.30;;;;;;;;;;6229427;23;20095;-81
2023/01/18 13:09:14;;;;;;;6.90;4.70;;;;;;;;;;6185790;23;20051;-80
2023/01/18 13:11:42;;;;;;;7.35;3.97;;;;;;;;;;6188144;23;20031;-80
2023/01/18 13:14:14;;;;;;;7.13;3.95;;;;;;;;;;6187176;23;20016;-80
2023/01/18 13:16:59;;;;;;;7.88;3.90;;;;;;;;;;6200502;23;20020;-79
2023/01/18 13:19:28;;;;;;;6.25;3.55;;;;;;;;;;6194612;23;20012;-83
2023/01/18 13:22:13;;;;;;;7.63;3.85;;;;;;;;;;6200998;23;20016;-71
2023/01/18 13:24:55;;;;;;;7.68;4.03;;;;;;;;;;6173667;23;20024;-72
2023/01/18 13:27:21;;;;;;;5.43;3.45;;;;;;;;;;6224863;23;20016;-72
2023/01/18 13:29:47;;;;;;;6.07;2.67;;;;;;;;;;6174966;23;20413;-72
2023/01/18 13:32:25;;;;;;;7.85;3.90;;;;;;;;;;6228284;23;20024;-72
2023/01/18 13:35:18;;;;;;;4.10;2.15;;;;;;;;;;6228080;23;20024;-72
2023/01/18 13:37:47;;;;;;;5.95;2.95;;;;;;;;;;6175611;23;20354;-72
2023/01/18 13:40:25;;;;;;;6.72;3.38;;;;;;;;;;6226242;23;20020;-75
2023/01/18 13:42:51;;;;;;;4.05;2.20;;;;;;;;;;6176293;23;20020;-75
2023/01/18 13:45:21;;;;;;;4.75;2.97;;;;;;;;;;6224850;23;20109;-75
2023/01/18 13:47:48;;;;;;;7.57;3.88;;;;;;;;;;6175244;23;20035;-75
2023/01/18 13:50:30;;;;;;;6.10;3.45;;;;;;;;;;6209704;23;20044;-75
2023/01/18 13:53:14;;;;;;;7.03;3.63;;;;;;;;;;6222616;23;20023;-75
2023/01/18 13:55:40;;;;;;;;;;;;;;;;;;6225929;23;20028;-75
2023/01/18 13:58:22;;;;;;;6.40;3.40;;;;;;;;;;6201244;22;19916;-75
2023/01/18 14:00:48;;;;;;;7.20;3.88;;;;;;;;;;6202784;23;20361;-75
2023/01/18 14:03:16;;;;;;;6.43;3.15;;;;;;;;;;6186302;23;20078;-74
2023/01/18 14:05:43;;;;;;;6.28;3.92;;;;;;;;;;6225072;23;20768;-75
2023/01/18 14:08:17;;;;;;;5.45;3.38;;;;;;;;;;6234978;23;20027;-75
2023/01/18 14:10:47;;;;;;;8.38;3.65;;;;;;;;;;6192800;23;20481;-75
2023/01/18 14:13:17;;;;;;;8.05;3.20;;;;;;;;;;6237091;23;20031;-75
2023/01/18 14:15:44;;;;;;;8.38;3.97;;;;;;;;;;6258827;22;20043;-75
2023/01/18 14:18:19;;;;;;;6.82;3.70;;;;;;;;;;6207725;23;20095;-75
2023/01/18 14:20:54;;;;;;;5.30;3.80;;;;;;;;;;6230146;23;20447;-75
2023/01/18 14:23:23;;;;;;;9.50;4.57;;;;;;;;;;6201476;23;20012;-75
2023/01/18 14:25:53;;;;;;;7.60;4.18;;;;;;;;;;6227253;23;20085;-75
2023/01/18 14:28:23;;;;;;;9.52;4.00;;;;;;;;;;6224776;22;20117;-75
2023/01/18 14:30:49;;;;;;;6.55;4.00;;;;;;;;;;6175275;23;20035;-75
2023/01/18 14:33:36;;;;;;;9.15;4.60;;;;;;;;;;6227621;23;20023;-75
2023/01/18 14:36:02;;;;;;;9.40;4.70;;;;;;;;;;6199937;23;20106;-75
2023/01/18 14:38:29;;;;;;;7.20;3.83;;;;;;;;;;6178035;23;20012;-75
2023/01/18 14:40:59;;;;;;;7.53;4.00;;;;;;;;;;6199763;23;20025;-75
2023/01/18 14:43:29;;;;;;;7.68;4.65;;;;;;;;;;6179729;23;20096;-75
2023/01/18 14:46:00;;;;;;;11.05;4.78;;;;;;;;;;6200679;23;20017;-76
2023/01/18 14:48:29;;;;;;;8.10;4.72;;;;;;;;;;6231685;23;20024;-75
2023/01/18 14:50:57;;;;;;;7.82;4.32;;;;;;;;;;6178691;23;20454;-75
2023/01/18 14:53:33;;;;;;;6.95;4.03;;;;;;;;;;6202575;23;20009;-75
2023/01/18 14:56:05;;;;;;;8.35;4.18;;;;;;;;;;6226744;23;20024;-75
2023/01/18 14:58:34;;;;;;;6.80;4.18;;;;;;;;;;6228053;22;20024;-76
2023/01/18 15:01:00;;;;;;;7.20;4.55;;;;;;;;;;6228928;23;20016;-75
2023/01/18 15:03:27;;;;;;;8.70;4.60;;;;;;;;;;6227607;23;20020;-75
2023/01/18 15:06:11;;;;;;;8.15;3.83;;;;;;;;;;6231671;23;20022;-75
2023/01/18 15:08:38;;;;;;;9.18;4.32;;;;;;;;;;6179417;23;20016;-75
2023/01/18 15:11:05;;;;;;;8.00;4.07;;;;;;;;;;6182186;23;20020;-75
2023/01/18 15:13:33;;;;;;;6.65;3.35;;;;;;;;;;6183820;23;20012;-76
2023/01/18 15:16:00;;;;;;;5.40;3.63;;;;;;;;;;6180408;23;20020;-76
2023/01/18 15:18:27;;;;;;;5.55;3.85;;;;;;;;;;6232464;23;20008;-75
2023/01/18 15:20:55;;;;;;;7.47;3.97;;;;;;;;;;6235199;23;20052;-76
2023/01/18 15:23:23;;;;;;;6.07;3.63;;;;;;;;;;6237840;23;20020;-76